createdAt,value
2019-03-25T00:01:09.884Z,3.80
2019-03-25T00:03:46.812Z,3.90
2019-03-25T00:06:17.155Z,3.90
2019-03-25T00:08:48.059Z,3.90
2019-03-25T00:11:25.002Z,3.90
2019-03-25T00:13:55.898Z,4.00
2019-03-25T00:16:25.582Z,4.00
2019-03-25T00:19:02.684Z,4.00
2019-03-25T00:21:32.367Z,4.00
2019-03-25T00:24:01.661Z,3.90
2019-03-25T00:26:37.396Z,3.90
2019-03-25T00:29:13.614Z,3.90
2019-03-25T00:31:50.437Z,3.90
2019-03-25T00:34:27.014Z,3.90
2019-03-25T00:37:03.277Z,4.00
2019-03-25T00:39:33.092Z,4.00
2019-03-25T00:42:02.451Z,4.00
2019-03-25T00:44:39.071Z,4.00
2019-03-25T00:47:09.702Z,4.00
2019-03-25T00:49:40.300Z,3.90
2019-03-25T00:52:17.065Z,3.90
2019-03-25T00:54:50.272Z,3.90
2019-03-25T00:57:19.696Z,4.00
2019-03-25T00:59:57.341Z,4.00
2019-03-25T01:02:27.194Z,4.10
2019-03-25T01:04:56.907Z,4.20
2019-03-25T01:07:33.465Z,4.20
2019-03-25T01:10:02.834Z,4.20
2019-03-25T01:12:32.186Z,4.20
2019-03-25T01:15:08.499Z,4.20
2019-03-25T01:17:37.731Z,4.30
2019-03-25T01:20:08.534Z,4.30
2019-03-25T01:22:44.485Z,4.40
2019-03-25T01:25:13.749Z,4.30
2019-03-25T01:27:55.987Z,4.30
2019-03-25T01:30:31.870Z,4.30
2019-03-25T01:33:08.122Z,4.30
2019-03-25T01:35:43.919Z,4.30
2019-03-25T01:38:19.968Z,4.30
2019-03-25T01:40:49.282Z,4.20
2019-03-25T01:43:18.738Z,4.20
2019-03-25T01:45:56.264Z,4.20
2019-03-25T01:48:25.567Z,4.20
2019-03-25T01:50:54.887Z,4.10
2019-03-25T01:53:30.271Z,4.10
2019-03-25T01:55:59.555Z,4.00
2019-03-25T01:58:29.135Z,4.10
2019-03-25T02:01:05.394Z,4.00
2019-03-25T02:03:34.762Z,4.00
2019-03-25T02:06:04.041Z,4.00
2019-03-25T02:08:39.930Z,4.00
2019-03-25T02:11:09.188Z,4.10
2019-03-25T02:13:38.496Z,4.00
2019-03-25T02:16:14.683Z,4.00
2019-03-25T02:18:43.945Z,3.90
2019-03-25T02:21:14.004Z,4.00
2019-03-25T02:23:49.603Z,4.00
2019-03-25T02:26:25.988Z,4.00
2019-03-25T02:29:08.086Z,4.00
2019-03-25T02:31:37.356Z,4.00
2019-03-25T02:34:06.697Z,4.00
2019-03-25T02:36:49.105Z,3.90
2019-03-25T02:39:18.546Z,3.90
2019-03-25T02:41:47.834Z,3.80
2019-03-25T02:44:24.103Z,3.70
2019-03-25T02:46:53.480Z,3.70
2019-03-25T02:49:22.746Z,3.70
2019-03-25T02:51:58.473Z,3.60
2019-03-25T02:54:28.507Z,3.60
2019-03-25T02:56:57.805Z,3.50
2019-03-25T02:59:33.535Z,3.50
2019-03-25T03:02:02.853Z,3.40
2019-03-25T03:04:32.145Z,3.40
2019-03-25T03:07:08.381Z,3.30
2019-03-25T03:09:37.663Z,3.30
2019-03-25T03:12:06.917Z,3.30
2019-03-25T03:14:43.156Z,3.30
2019-03-25T03:17:12.589Z,3.30
2019-03-25T03:19:41.985Z,3.40
2019-03-25T03:22:18.436Z,3.40
2019-03-25T03:24:47.725Z,3.30
2019-03-25T03:27:30.202Z,3.30
2019-03-25T03:30:05.885Z,3.40
2019-03-25T03:32:41.551Z,3.30
2019-03-25T03:35:10.957Z,3.30
2019-03-25T03:37:53.710Z,3.30
2019-03-25T03:40:22.977Z,3.30
2019-03-25T03:42:52.555Z,3.30
2019-03-25T03:45:28.347Z,3.30
2019-03-25T03:47:57.637Z,3.30
2019-03-25T03:50:28.888Z,3.30
2019-03-25T03:53:05.570Z,3.30
2019-03-25T03:55:37.020Z,3.30
2019-03-25T03:58:07.611Z,3.30
2019-03-25T04:00:43.641Z,3.20
2019-03-25T04:03:12.968Z,3.20
2019-03-25T04:05:42.210Z,3.30
2019-03-25T04:08:17.833Z,3.20
2019-03-25T04:10:47.201Z,3.20
2019-03-25T04:13:16.500Z,3.30
2019-03-25T04:15:52.871Z,3.30
2019-03-25T04:18:22.263Z,3.30
2019-03-25T04:20:51.641Z,3.40
2019-03-25T04:23:27.103Z,3.40
2019-03-25T04:25:56.474Z,3.40
2019-03-25T04:28:39.090Z,3.50
2019-03-25T04:31:15.293Z,3.50
2019-03-25T04:33:51.566Z,3.50
2019-03-25T04:36:20.897Z,3.40
2019-03-25T04:39:03.129Z,3.40
2019-03-25T04:41:32.452Z,3.50
2019-03-25T04:44:01.774Z,3.50
2019-03-25T04:46:37.405Z,3.60
2019-03-25T04:49:06.801Z,3.70
2019-03-25T04:51:36.110Z,3.60
2019-03-25T04:54:12.386Z,3.60
2019-03-25T04:56:42.291Z,3.60
2019-03-25T04:59:11.607Z,3.70
2019-03-25T05:01:47.155Z,3.60
2019-03-25T05:04:16.532Z,3.70
2019-03-25T05:06:46.229Z,3.80
2019-03-25T05:09:22.364Z,3.80
2019-03-25T05:11:51.665Z,3.80
2019-03-25T05:14:20.913Z,3.80
2019-03-25T05:16:56.684Z,3.80
2019-03-25T05:19:26.291Z,3.80
2019-03-25T05:21:55.597Z,3.80
2019-03-25T05:24:31.643Z,3.90
2019-03-25T05:27:01.043Z,3.90
2019-03-25T05:29:43.167Z,3.90
2019-03-25T05:32:19.096Z,3.90
2019-03-25T05:34:55.268Z,3.90
2019-03-25T05:37:24.575Z,4.00
2019-03-25T05:40:07.384Z,4.00
2019-03-25T05:42:38.888Z,4.00
2019-03-25T05:45:08.236Z,3.90
2019-03-25T05:47:44.561Z,4.00
2019-03-25T05:50:13.989Z,4.00
2019-03-25T05:52:43.232Z,4.00
2019-03-25T05:55:19.140Z,4.00
2019-03-25T05:57:48.660Z,4.00
2019-03-25T06:00:19.803Z,4.00
2019-03-25T06:02:56.272Z,3.90
2019-03-25T06:05:25.549Z,3.80
2019-03-25T06:07:54.819Z,3.60
2019-03-25T06:10:30.425Z,3.40
2019-03-25T06:12:59.727Z,3.30
2019-03-25T06:15:29.109Z,3.00
2019-03-25T06:18:04.727Z,2.80
2019-03-25T06:20:34.037Z,2.80
2019-03-25T06:23:03.374Z,2.70
2019-03-25T06:25:39.718Z,2.70
2019-03-25T06:28:09.004Z,2.70
2019-03-25T06:30:50.850Z,2.70
2019-03-25T06:33:26.844Z,2.70
2019-03-25T06:36:03.652Z,2.70
2019-03-25T06:38:32.925Z,2.70
2019-03-25T06:41:14.919Z,2.70
2019-03-25T06:43:44.286Z,2.70
2019-03-25T06:46:13.644Z,2.70
2019-03-25T06:48:49.251Z,2.70
2019-03-25T06:51:18.598Z,2.60
2019-03-25T06:53:47.874Z,2.60
2019-03-25T06:56:23.796Z,2.50
2019-03-25T06:58:53.108Z,2.40
2019-03-25T07:01:22.357Z,2.20
2019-03-25T07:03:57.870Z,2.10
2019-03-25T07:06:27.123Z,2.10
2019-03-25T07:08:56.420Z,2.20
2019-03-25T07:11:32.597Z,2.10
2019-03-25T07:14:01.912Z,2.20
2019-03-25T07:16:31.352Z,2.10
2019-03-25T07:19:07.607Z,2.10
2019-03-25T07:21:37.252Z,2.00
2019-03-25T07:24:06.647Z,2.10
2019-03-25T07:26:42.982Z,2.00
2019-03-25T07:29:18.370Z,2.00
2019-03-25T07:32:01.226Z,2.00
2019-03-25T07:34:30.559Z,2.10
2019-03-25T07:36:59.825Z,2.10
2019-03-25T07:39:35.715Z,2.20
2019-03-25T07:42:11.782Z,2.20
2019-03-25T07:44:48.140Z,2.20
2019-03-25T07:47:17.509Z,2.20
2019-03-25T07:49:46.865Z,2.30
2019-03-25T07:52:23.027Z,2.30
2019-03-25T07:54:52.328Z,2.40
2019-03-25T07:57:21.648Z,2.50
2019-03-25T07:59:57.880Z,2.60
2019-03-25T08:02:27.278Z,2.60
2019-03-25T08:04:56.644Z,2.70
2019-03-25T08:07:35.088Z,2.80
2019-03-25T08:10:04.822Z,2.90
2019-03-25T08:12:34.191Z,2.90
2019-03-25T08:15:09.915Z,2.90
2019-03-25T08:17:39.233Z,3.00
2019-03-25T08:20:10.831Z,3.10
2019-03-25T08:22:46.369Z,3.20
2019-03-25T08:25:15.823Z,3.20
2019-03-25T08:27:45.184Z,3.30
2019-03-25T08:30:21.392Z,3.40
2019-03-25T08:32:57.755Z,3.60
2019-03-25T08:35:33.921Z,3.80
2019-03-25T08:38:03.211Z,3.90
2019-03-25T08:40:32.615Z,4.10
2019-03-25T08:43:14.764Z,4.30
2019-03-25T08:45:44.171Z,4.40
2019-03-25T08:48:13.897Z,4.50
2019-03-25T08:50:50.223Z,4.40
2019-03-25T08:53:19.599Z,4.40
2019-03-25T08:55:48.871Z,4.40
2019-03-25T08:58:25.032Z,4.40
2019-03-25T09:00:54.395Z,4.70
2019-03-25T09:03:23.810Z,4.90
2019-03-25T09:05:59.997Z,5.10
2019-03-25T09:08:29.350Z,5.20
2019-03-25T09:10:58.693Z,5.30
2019-03-25T09:13:35.119Z,5.10
2019-03-25T09:16:04.554Z,5.00
2019-03-25T09:18:33.839Z,4.80
2019-03-25T09:21:11.421Z,4.90
2019-03-25T09:23:40.814Z,4.90
2019-03-25T09:26:10.171Z,4.80
2019-03-25T09:28:46.059Z,4.80
2019-03-25T09:31:23.521Z,5.00
2019-03-25T09:34:05.966Z,5.20
2019-03-25T09:36:35.288Z,5.10
2019-03-25T09:39:07.484Z,5.30
2019-03-25T09:41:43.388Z,5.50
2019-03-25T09:44:19.584Z,5.50
2019-03-25T09:46:55.440Z,5.70
2019-03-25T09:49:24.690Z,5.80
2019-03-25T09:51:53.988Z,5.40
2019-03-25T09:54:29.884Z,5.30
2019-03-25T09:56:59.422Z,5.30
2019-03-25T09:59:31.043Z,5.30
2019-03-25T10:02:07.255Z,5.40
2019-03-25T10:04:36.577Z,5.40
2019-03-25T10:07:06.261Z,5.50
2019-03-25T10:09:42.193Z,5.50
2019-03-25T10:12:11.540Z,5.40
2019-03-25T10:14:40.845Z,5.30
2019-03-25T10:17:16.574Z,5.30
2019-03-25T10:19:45.910Z,5.20
2019-03-25T10:22:15.351Z,5.30
2019-03-25T10:24:51.038Z,5.30
2019-03-25T10:27:20.555Z,5.20
2019-03-25T10:29:49.839Z,5.20
2019-03-25T10:32:26.344Z,5.20
2019-03-25T10:35:02.270Z,5.30
2019-03-25T10:37:38.870Z,5.50
2019-03-25T10:40:08.840Z,5.70
2019-03-25T10:42:51.280Z,5.80
2019-03-25T10:45:27.085Z,5.90
2019-03-25T10:48:03.383Z,6.10
2019-03-25T10:50:32.614Z,6.50
2019-03-25T10:53:02.288Z,6.70
2019-03-25T10:55:38.595Z,6.60
2019-03-25T10:58:07.939Z,6.40
2019-03-25T11:00:37.485Z,6.10
2019-03-25T11:03:13.676Z,5.80
2019-03-25T11:05:42.899Z,5.90
2019-03-25T11:08:12.211Z,6.40
2019-03-25T11:10:47.878Z,7.20
2019-03-25T11:13:17.184Z,7.50
2019-03-25T11:15:46.550Z,7.20
2019-03-25T11:18:22.311Z,7.00
2019-03-25T11:20:51.583Z,6.60
2019-03-25T11:23:20.862Z,6.50
2019-03-25T11:25:57.395Z,6.40
2019-03-25T11:28:26.709Z,6.10
2019-03-25T11:30:57.944Z,6.00
2019-03-25T11:33:40.425Z,6.40
2019-03-25T11:36:17.375Z,6.50
2019-03-25T11:38:53.507Z,6.60
2019-03-25T11:41:22.733Z,7.00
2019-03-25T11:43:52.098Z,7.50
2019-03-25T11:46:34.421Z,7.50
2019-03-25T11:49:03.720Z,7.60
2019-03-25T11:51:33.007Z,7.50
2019-03-25T11:54:09.132Z,8.40
2019-03-25T11:56:38.469Z,8.40
2019-03-25T11:59:07.769Z,7.80
2019-03-25T12:01:43.439Z,7.90
2019-03-25T12:04:12.742Z,8.50
2019-03-25T12:06:42.095Z,9.00
2019-03-25T12:09:18.176Z,9.20
2019-03-25T12:11:47.493Z,9.20
2019-03-25T12:14:16.771Z,8.90
2019-03-25T12:16:52.447Z,8.40
2019-03-25T12:19:21.736Z,8.40
2019-03-25T12:21:52.621Z,8.50
2019-03-25T12:24:28.938Z,8.80
2019-03-25T12:26:58.299Z,8.80
2019-03-25T12:29:30.283Z,8.70
2019-03-25T12:32:05.467Z,9.00
2019-03-25T12:34:42.177Z,9.00
2019-03-25T12:37:17.615Z,8.80
2019-03-25T12:39:46.872Z,8.70
2019-03-25T12:42:18.310Z,8.50
2019-03-25T12:44:54.453Z,9.00
2019-03-25T12:47:32.848Z,9.40
2019-03-25T12:50:08.912Z,10.20
2019-03-25T12:52:38.398Z,10.80
2019-03-25T12:55:08.156Z,10.60
2019-03-25T12:57:43.965Z,10.80
2019-03-25T13:00:13.506Z,10.50
2019-03-25T13:02:42.794Z,10.60
2019-03-25T13:05:19.174Z,10.90
2019-03-25T13:07:48.848Z,10.80
2019-03-25T13:10:18.195Z,11.10
2019-03-25T13:12:54.297Z,11.20
2019-03-25T13:15:23.651Z,11.40
2019-03-25T13:17:53.107Z,11.30
2019-03-25T13:20:28.592Z,11.10
2019-03-25T13:22:57.850Z,10.90
2019-03-25T13:25:27.183Z,10.40
2019-03-25T13:28:04.480Z,10.50
2019-03-25T13:30:33.881Z,10.40
2019-03-25T13:33:16.365Z,10.10
2019-03-25T13:35:52.826Z,9.80
2019-03-25T13:38:28.961Z,9.50
2019-03-25T13:40:58.304Z,9.50
2019-03-25T13:43:27.516Z,9.20
2019-03-25T13:46:05.721Z,9.00
2019-03-25T13:48:41.543Z,8.40
2019-03-25T13:51:17.412Z,8.20
2019-03-25T13:53:47.047Z,8.00
2019-03-25T13:56:16.465Z,7.20
2019-03-25T13:58:52.322Z,6.10
2019-03-25T14:01:22.705Z,5.90
2019-03-25T14:03:52.979Z,5.80
2019-03-25T14:06:29.214Z,5.80
2019-03-25T14:09:00.055Z,5.60
2019-03-25T14:11:29.322Z,5.60
2019-03-25T14:14:05.811Z,5.50
2019-03-25T14:16:35.109Z,5.60
2019-03-25T14:19:04.889Z,5.50
2019-03-25T14:21:41.179Z,5.60
2019-03-25T14:24:10.465Z,5.60
2019-03-25T14:26:39.813Z,5.60
2019-03-25T14:29:15.769Z,5.90
2019-03-25T14:31:45.098Z,5.90
2019-03-25T14:34:27.743Z,5.90
2019-03-25T14:37:03.590Z,6.00
2019-03-25T14:39:39.970Z,5.80
2019-03-25T14:42:09.361Z,6.00
2019-03-25T14:44:38.690Z,6.00
2019-03-25T14:47:14.726Z,5.80
2019-03-25T14:49:50.867Z,5.80
2019-03-25T14:52:26.507Z,5.70
2019-03-25T14:54:55.811Z,5.80
2019-03-25T14:57:25.168Z,5.80
2019-03-25T15:00:01.674Z,5.70
2019-03-25T15:05:16.101Z,5.80
2019-03-25T15:07:46.466Z,5.80
2019-03-25T15:10:15.997Z,5.90
2019-03-25T15:12:51.844Z,5.90
2019-03-25T15:15:22.437Z,5.90
2019-03-25T15:17:51.785Z,5.90
2019-03-25T15:20:28.052Z,6.00
2019-03-25T15:22:57.323Z,6.10
2019-03-25T15:25:26.699Z,6.00
2019-03-25T15:28:02.937Z,6.10
2019-03-25T15:30:36.325Z,6.10
2019-03-25T15:33:03.193Z,6.20
2019-03-25T15:35:39.111Z,6.20
2019-03-25T15:38:08.513Z,6.30
2019-03-25T15:40:37.788Z,6.30
2019-03-25T15:43:13.290Z,6.30
2019-03-25T15:45:42.704Z,6.30
2019-03-25T15:48:12.007Z,6.30
2019-03-25T15:50:55.069Z,6.30
2019-03-25T15:53:25.397Z,6.30
2019-03-25T15:55:54.696Z,6.30
2019-03-25T15:58:30.908Z,6.30
2019-03-25T16:01:00.277Z,6.40
2019-03-25T16:03:42.882Z,6.40
2019-03-25T16:06:18.739Z,6.40
2019-03-25T16:08:54.579Z,6.40
2019-03-25T16:11:24.582Z,6.40
2019-03-25T16:13:53.834Z,6.30
2019-03-25T16:16:29.680Z,6.40
2019-03-25T16:18:59.065Z,6.40
2019-03-25T16:21:28.499Z,6.30
2019-03-25T16:24:04.647Z,6.20
2019-03-25T16:26:33.965Z,6.20
2019-03-25T16:29:03.321Z,6.20
2019-03-25T16:31:38.712Z,6.10
2019-03-25T16:34:09.646Z,6.10
2019-03-25T16:36:39.213Z,6.10
2019-03-25T16:39:15.885Z,6.10
2019-03-25T16:41:45.155Z,6.00
2019-03-25T16:44:14.563Z,5.90
2019-03-25T16:46:50.688Z,5.90
2019-03-25T16:49:19.986Z,5.90
2019-03-25T16:52:02.393Z,5.90
2019-03-25T16:54:31.658Z,5.90
2019-03-25T16:57:01.253Z,5.80
2019-03-25T16:59:36.709Z,5.80
2019-03-25T17:02:06.090Z,5.80
2019-03-25T17:04:48.639Z,5.80
2019-03-25T17:07:24.502Z,5.80
2019-03-25T17:10:00.313Z,5.90
2019-03-25T17:12:29.565Z,5.90
2019-03-25T17:14:59.587Z,5.90
2019-03-25T17:17:35.899Z,5.90
2019-03-25T17:20:05.647Z,5.90
2019-03-25T17:22:35.000Z,5.90
2019-03-25T17:25:11.059Z,5.90
2019-03-25T17:27:40.333Z,5.90
2019-03-25T17:30:19.913Z,5.90
2019-03-25T17:32:51.080Z,5.90
2019-03-25T17:35:20.405Z,5.90
2019-03-25T17:37:56.506Z,5.90
2019-03-25T17:40:25.875Z,5.80
2019-03-25T17:42:55.264Z,5.70
2019-03-25T17:45:31.628Z,5.70
2019-03-25T17:48:01.755Z,5.70
2019-03-25T17:50:31.438Z,5.60
2019-03-25T17:53:13.239Z,5.60
2019-03-25T17:55:42.688Z,5.60
2019-03-25T17:58:13.197Z,5.60
2019-03-25T18:01:11.716Z,5.50
2019-03-25T18:03:40.997Z,5.50
2019-03-25T18:06:23.685Z,5.50
2019-03-25T18:08:59.507Z,5.40
2019-03-25T18:11:35.555Z,5.40
2019-03-25T18:14:05.183Z,5.40
2019-03-25T18:16:34.509Z,5.30
2019-03-25T18:19:10.287Z,5.30
2019-03-25T18:21:39.694Z,5.40
2019-03-25T18:24:09.034Z,5.40
2019-03-25T18:26:44.757Z,5.40
2019-03-25T18:29:14.095Z,5.30
2019-03-25T18:31:44.112Z,5.30
2019-03-25T18:34:20.463Z,5.40
2019-03-25T18:36:49.895Z,5.40
2019-03-25T18:39:19.392Z,5.40
2019-03-25T18:41:56.265Z,5.40
2019-03-25T18:44:25.696Z,5.40
2019-03-25T18:46:55.368Z,5.40
2019-03-25T18:49:32.042Z,5.40
2019-03-25T18:52:01.561Z,5.40
2019-03-25T18:54:44.189Z,5.40
2019-03-25T18:57:13.584Z,5.40
2019-03-25T18:59:43.241Z,5.30
2019-03-25T19:02:19.490Z,5.20
2019-03-25T19:04:56.149Z,5.20
2019-03-25T19:07:37.887Z,5.10
2019-03-25T19:10:07.348Z,5.10
2019-03-25T19:12:36.951Z,5.10
2019-03-25T19:15:13.537Z,5.00
2019-03-25T19:17:45.772Z,5.00
2019-03-25T19:20:15.204Z,4.90
2019-03-25T19:22:51.537Z,4.80
2019-03-25T19:25:20.895Z,4.90
2019-03-25T19:27:50.534Z,4.80
2019-03-25T19:30:26.468Z,4.70
2019-03-25T19:32:55.838Z,4.70
2019-03-25T19:35:25.547Z,4.70
2019-03-25T19:38:02.595Z,4.60
2019-03-25T19:40:31.940Z,4.60
2019-03-25T19:43:03.885Z,4.60
2019-03-25T19:45:40.106Z,4.50
2019-03-25T19:48:09.537Z,4.50
2019-03-25T19:50:38.846Z,4.40
2019-03-25T19:53:19.295Z,4.30
2019-03-25T19:55:52.220Z,4.20
2019-03-25T19:58:28.454Z,4.10
2019-03-25T20:00:57.828Z,4.00
2019-03-25T20:03:27.242Z,4.00
2019-03-25T20:06:03.537Z,3.80
2019-03-25T20:08:39.858Z,3.90
2019-03-25T20:11:16.165Z,3.80
2019-03-25T20:13:49.833Z,3.80
2019-03-25T20:16:26.314Z,3.80
2019-03-25T20:19:02.497Z,3.70
2019-03-25T20:21:38.876Z,3.60
2019-03-25T20:24:09.492Z,3.60
2019-03-25T20:26:40.380Z,3.60
2019-03-25T20:29:16.193Z,3.60
2019-03-25T20:31:45.691Z,3.60
2019-03-25T20:34:14.989Z,3.50
2019-03-25T20:36:51.563Z,3.40
2019-03-25T20:39:20.848Z,3.40
2019-03-25T20:41:50.314Z,3.30
2019-03-25T20:44:26.731Z,3.20
2019-03-25T20:46:56.146Z,3.20
2019-03-25T20:49:25.541Z,3.10
2019-03-25T20:52:01.320Z,3.00
2019-03-25T20:54:30.815Z,3.00
2019-03-25T20:57:13.007Z,2.90
2019-03-25T20:59:42.462Z,2.90
2019-03-25T21:02:11.938Z,2.90
2019-03-25T21:04:48.056Z,2.90
2019-03-25T21:07:25.176Z,2.80
2019-03-25T21:10:07.672Z,2.80
2019-03-25T21:12:38.728Z,2.80
2019-03-25T21:15:08.956Z,2.90
2019-03-25T21:17:44.630Z,2.80
2019-03-25T21:20:14.108Z,2.80
2019-03-25T21:22:43.509Z,2.90
2019-03-25T21:25:26.415Z,2.90
2019-03-25T21:27:55.732Z,2.90
2019-03-25T21:30:28.151Z,2.80
2019-03-25T21:33:03.777Z,2.70
2019-03-25T21:35:33.166Z,2.70
2019-03-25T21:38:02.543Z,2.60
2019-03-25T21:40:38.678Z,2.50
2019-03-25T21:43:07.997Z,2.50
2019-03-25T21:45:37.443Z,2.50
2019-03-25T21:48:14.067Z,2.50
2019-03-25T21:50:43.535Z,2.50
2019-03-25T21:53:12.856Z,2.40
2019-03-25T21:55:48.642Z,2.50
2019-03-25T21:58:24.805Z,2.40
2019-03-25T22:01:01.099Z,2.30
2019-03-25T22:03:30.532Z,2.30
2019-03-25T22:05:59.844Z,2.40
2019-03-25T22:08:35.776Z,2.30
2019-03-25T22:11:12.041Z,2.20
2019-03-25T22:13:48.557Z,2.20
2019-03-25T22:16:17.865Z,2.20
2019-03-25T22:18:47.205Z,2.10
2019-03-25T22:21:23.406Z,2.10
2019-03-25T22:23:53.928Z,2.10
2019-03-25T22:26:23.484Z,2.00
2019-03-25T22:28:59.085Z,1.90
2019-03-25T22:31:28.410Z,1.90
2019-03-25T22:33:57.669Z,2.00
2019-03-25T22:36:33.836Z,1.90
2019-03-25T22:39:04.081Z,1.90
2019-03-25T22:41:35.029Z,1.90
2019-03-25T22:44:11.603Z,1.90
2019-03-25T22:46:40.897Z,1.90
2019-03-25T22:49:10.266Z,2.00
2019-03-25T22:51:46.520Z,2.00
2019-03-25T22:54:15.807Z,1.90
2019-03-25T22:56:45.082Z,1.90
2019-03-25T22:59:27.313Z,1.90
2019-03-25T23:01:56.830Z,1.80
2019-03-25T23:04:26.108Z,1.80
2019-03-25T23:07:02.530Z,1.80
2019-03-25T23:09:37.981Z,1.80
2019-03-25T23:12:13.730Z,1.70
2019-03-25T23:14:43.088Z,1.70
2019-03-25T23:17:12.485Z,1.70
2019-03-25T23:19:48.696Z,1.60
2019-03-25T23:22:18.087Z,1.60
2019-03-25T23:24:48.787Z,1.60
2019-03-25T23:27:24.569Z,1.50
2019-03-25T23:29:53.871Z,1.50
2019-03-25T23:32:23.246Z,1.50
2019-03-25T23:34:59.218Z,1.50
2019-03-25T23:37:28.625Z,1.50
2019-03-25T23:39:57.944Z,1.50
2019-03-25T23:42:33.578Z,1.50
2019-03-25T23:45:02.956Z,1.50
2019-03-25T23:47:32.271Z,1.40
2019-03-25T23:50:07.733Z,1.50
2019-03-25T23:52:37.027Z,1.50
2019-03-25T23:55:06.706Z,1.50
2019-03-25T23:57:42.411Z,1.40
